sensor_id;sensor_type;location;lat;lon;timestamp;pressure;altitude;pressure_sealevel;temperature;humidity
17855;BME280;9053;53.358;6.382;2023-03-15T00:01:52;100819.13;;;4.61;92.55
17855;BME280;9053;53.358;6.382;2023-03-15T00:04:22;100820.03;;;4.62;92.59
17855;BME280;9053;53.358;6.382;2023-03-15T00:06:52;100823.41;;;4.61;92.70
17855;BME280;9053;53.358;6.382;2023-03-15T00:09:22;100835.38;;;4.57;92.60
17855;BME280;9053;53.358;6.382;2023-03-15T00:11:52;100840.22;;;4.51;92.69
17855;BME280;9053;53.358;6.382;2023-03-15T00:14:25;100839.34;;;4.50;92.66
17855;BME280;9053;53.358;6.382;2023-03-15T00:16:55;100849.56;;;4.47;92.58
17855;BME280;9053;53.358;6.382;2023-03-15T00:19:24;100846.06;;;4.47;92.65
17855;BME280;9053;53.358;6.382;2023-03-15T00:21:54;100846.81;;;4.44;92.60
17855;BME280;9053;53.358;6.382;2023-03-15T00:24:24;100859.72;;;4.43;92.64
17855;BME280;9053;53.358;6.382;2023-03-15T00:26:54;100860.81;;;4.46;92.57
17855;BME280;9053;53.358;6.382;2023-03-15T00:29:29;100869.69;;;4.50;92.45
17855;BME280;9053;53.358;6.382;2023-03-15T00:32:00;100865.53;;;4.53;92.19
17855;BME280;9053;53.358;6.382;2023-03-15T00:34:32;100887.47;;;4.57;92.34
17855;BME280;9053;53.358;6.382;2023-03-15T00:37:02;100893.69;;;4.59;92.19
17855;BME280;9053;53.358;6.382;2023-03-15T00:39:32;100895.72;;;4.50;92.14
17855;BME280;9053;53.358;6.382;2023-03-15T00:42:03;100903.00;;;4.41;92.03
17855;BME280;9053;53.358;6.382;2023-03-15T00:44:36;100908.03;;;4.38;91.96
17855;BME280;9053;53.358;6.382;2023-03-15T00:47:06;100919.16;;;4.35;91.93
17855;BME280;9053;53.358;6.382;2023-03-15T00:49:36;100913.88;;;4.33;92.04
17855;BME280;9053;53.358;6.382;2023-03-15T00:52:06;100923.47;;;4.34;92.11
17855;BME280;9053;53.358;6.382;2023-03-15T00:54:38;100926.25;;;4.38;92.35
17855;BME280;9053;53.358;6.382;2023-03-15T00:57:08;100930.84;;;4.42;92.33
17855;BME280;9053;53.358;6.382;2023-03-15T00:59:40;100936.34;;;4.46;92.40
17855;BME280;9053;53.358;6.382;2023-03-15T01:02:10;100942.44;;;4.47;92.53
17855;BME280;9053;53.358;6.382;2023-03-15T01:04:41;100944.16;;;4.46;92.63
17855;BME280;9053;53.358;6.382;2023-03-15T01:07:12;100949.53;;;4.49;92.64
17855;BME280;9053;53.358;6.382;2023-03-15T01:09:42;100949.81;;;4.54;92.73
17855;BME280;9053;53.358;6.382;2023-03-15T01:12:14;100957.97;;;4.60;93.01
17855;BME280;9053;53.358;6.382;2023-03-15T01:14:46;100964.34;;;4.65;93.10
17855;BME280;9053;53.358;6.382;2023-03-15T01:17:16;100959.97;;;4.64;93.16
17855;BME280;9053;53.358;6.382;2023-03-15T01:19:46;100961.56;;;4.62;93.10
17855;BME280;9053;53.358;6.382;2023-03-15T01:22:17;100967.41;;;4.58;93.23
17855;BME280;9053;53.358;6.382;2023-03-15T01:24:47;100964.50;;;4.53;93.16
17855;BME280;9053;53.358;6.382;2023-03-15T01:27:17;100972.97;;;4.49;93.24
17855;BME280;9053;53.358;6.382;2023-03-15T01:29:49;100969.47;;;4.49;93.27
17855;BME280;9053;53.358;6.382;2023-03-15T01:32:21;100983.47;;;4.51;93.31
17855;BME280;9053;53.358;6.382;2023-03-15T01:34:51;100975.66;;;4.51;93.31
17855;BME280;9053;53.358;6.382;2023-03-15T01:37:21;100985.34;;;4.53;93.41
17855;BME280;9053;53.358;6.382;2023-03-15T01:39:52;100994.97;;;4.54;93.41
17855;BME280;9053;53.358;6.382;2023-03-15T01:42:22;100999.47;;;4.57;93.33
17855;BME280;9053;53.358;6.382;2023-03-15T01:44:56;100992.66;;;4.59;93.37
17855;BME280;9053;53.358;6.382;2023-03-15T01:47:29;101007.41;;;4.59;93.38
17855;BME280;9053;53.358;6.382;2023-03-15T01:50:02;101008.47;;;4.62;93.30
17855;BME280;9053;53.358;6.382;2023-03-15T01:52:36;101012.06;;;4.64;93.27
17855;BME280;9053;53.358;6.382;2023-03-15T01:55:10;101007.94;;;4.68;93.29
17855;BME280;9053;53.358;6.382;2023-03-15T01:57:43;101016.75;;;4.70;93.10
17855;BME280;9053;53.358;6.382;2023-03-15T02:00:19;101012.25;;;4.67;92.93
17855;BME280;9053;53.358;6.382;2023-03-15T02:02:52;101022.56;;;4.66;93.09
17855;BME280;9053;53.358;6.382;2023-03-15T02:05:27;101012.84;;;4.63;92.82
17855;BME280;9053;53.358;6.382;2023-03-15T02:07:58;101021.50;;;4.62;92.90
17855;BME280;9053;53.358;6.382;2023-03-15T02:10:31;101030.91;;;4.60;92.74
17855;BME280;9053;53.358;6.382;2023-03-15T02:13:04;101031.81;;;4.61;92.86
17855;BME280;9053;53.358;6.382;2023-03-15T02:15:39;101030.84;;;4.59;92.69
17855;BME280;9053;53.358;6.382;2023-03-15T02:18:13;101039.34;;;4.56;92.66
17855;BME280;9053;53.358;6.382;2023-03-15T02:20:49;101042.59;;;4.52;92.65
17855;BME280;9053;53.358;6.382;2023-03-15T02:23:25;101053.72;;;4.49;92.58
17855;BME280;9053;53.358;6.382;2023-03-15T02:26:03;101054.41;;;4.47;92.54
17855;BME280;9053;53.358;6.382;2023-03-15T02:28:38;101060.53;;;4.47;92.25
17855;BME280;9053;53.358;6.382;2023-03-15T02:31:09;101065.63;;;4.46;92.35
17855;BME280;9053;53.358;6.382;2023-03-15T02:33:42;101066.44;;;4.45;92.24
17855;BME280;9053;53.358;6.382;2023-03-15T02:36:16;101070.84;;;4.46;92.26
17855;BME280;9053;53.358;6.382;2023-03-15T02:38:48;101077.69;;;4.44;92.31
17855;BME280;9053;53.358;6.382;2023-03-15T02:41:21;101080.28;;;4.44;92.15
17855;BME280;9053;53.358;6.382;2023-03-15T02:44:00;101081.00;;;4.41;92.26
17855;BME280;9053;53.358;6.382;2023-03-15T02:46:35;101084.31;;;4.39;92.29
17855;BME280;9053;53.358;6.382;2023-03-15T02:49:06;101092.81;;;4.36;92.26
17855;BME280;9053;53.358;6.382;2023-03-15T02:51:37;101085.81;;;4.35;92.19
17855;BME280;9053;53.358;6.382;2023-03-15T02:54:06;101090.13;;;4.34;92.02
17855;BME280;9053;53.358;6.382;2023-03-15T02:56:36;101087.50;;;4.34;92.22
17855;BME280;9053;53.358;6.382;2023-03-15T02:59:09;101092.81;;;4.36;92.15
17855;BME280;9053;53.358;6.382;2023-03-15T03:01:39;101095.44;;;4.36;92.02
17855;BME280;9053;53.358;6.382;2023-03-15T03:04:11;101102.31;;;4.36;92.06
17855;BME280;9053;53.358;6.382;2023-03-15T03:06:41;101106.75;;;4.37;92.14
17855;BME280;9053;53.358;6.382;2023-03-15T03:09:13;101098.75;;;4.33;92.18
17855;BME280;9053;53.358;6.382;2023-03-15T03:11:42;101099.22;;;4.28;92.08
17855;BME280;9053;53.358;6.382;2023-03-15T03:14:15;101113.97;;;4.27;92.12
17855;BME280;9053;53.358;6.382;2023-03-15T03:16:45;101099.03;;;4.25;92.06
17855;BME280;9053;53.358;6.382;2023-03-15T03:19:16;101113.66;;;4.23;92.14
17855;BME280;9053;53.358;6.382;2023-03-15T03:21:51;101121.41;;;4.21;91.98
17855;BME280;9053;53.358;6.382;2023-03-15T03:24:22;101127.19;;;4.17;92.04
17855;BME280;9053;53.358;6.382;2023-03-15T03:26:52;101139.03;;;4.12;91.84
17855;BME280;9053;53.358;6.382;2023-03-15T03:29:26;101141.44;;;4.09;91.64
17855;BME280;9053;53.358;6.382;2023-03-15T03:31:56;101149.94;;;4.06;91.58
17855;BME280;9053;53.358;6.382;2023-03-15T03:34:26;101162.84;;;4.05;91.51
17855;BME280;9053;53.358;6.382;2023-03-15T03:36:57;101160.88;;;4.01;91.19
17855;BME280;9053;53.358;6.382;2023-03-15T03:39:27;101172.06;;;4.00;90.98
17855;BME280;9053;53.358;6.382;2023-03-15T03:41:57;101169.25;;;3.97;90.94
17855;BME280;9053;53.358;6.382;2023-03-15T03:44:29;101176.16;;;3.96;90.71
17855;BME280;9053;53.358;6.382;2023-03-15T03:46:59;101179.66;;;3.97;90.46
17855;BME280;9053;53.358;6.382;2023-03-15T03:49:29;101182.38;;;3.98;90.31
17855;BME280;9053;53.358;6.382;2023-03-15T03:51:59;101192.09;;;4.01;90.12
17855;BME280;9053;53.358;6.382;2023-03-15T03:54:29;101196.38;;;4.00;90.00
17855;BME280;9053;53.358;6.382;2023-03-15T03:56:59;101198.06;;;4.00;89.79
17855;BME280;9053;53.358;6.382;2023-03-15T03:59:34;101210.19;;;3.99;89.62
17855;BME280;9053;53.358;6.382;2023-03-15T04:02:04;101216.09;;;3.97;89.44
17855;BME280;9053;53.358;6.382;2023-03-15T04:04:34;101220.41;;;3.96;89.47
17855;BME280;9053;53.358;6.382;2023-03-15T04:07:07;101222.00;;;3.94;89.23
17855;BME280;9053;53.358;6.382;2023-03-15T04:09:38;101222.00;;;3.94;89.08
17855;BME280;9053;53.358;6.382;2023-03-15T04:12:08;101231.53;;;3.94;88.88
17855;BME280;9053;53.358;6.382;2023-03-15T04:14:41;101240.22;;;3.94;88.84
17855;BME280;9053;53.358;6.382;2023-03-15T04:17:11;101235.91;;;3.95;88.69
17855;BME280;9053;53.358;6.382;2023-03-15T04:19:41;101240.41;;;3.97;88.68
17855;BME280;9053;53.358;6.382;2023-03-15T04:22:13;101237.13;;;4.00;88.61
17855;BME280;9053;53.358;6.382;2023-03-15T04:24:43;101240.84;;;4.03;88.66
17855;BME280;9053;53.358;6.382;2023-03-15T04:27:16;101242.75;;;4.06;88.55
17855;BME280;9053;53.358;6.382;2023-03-15T04:29:51;101242.94;;;4.09;88.41
17855;BME280;9053;53.358;6.382;2023-03-15T04:32:21;101248.34;;;4.12;88.41
17855;BME280;9053;53.358;6.382;2023-03-15T04:34:51;101254.63;;;4.16;88.40
17855;BME280;9053;53.358;6.382;2023-03-15T04:37:21;101266.19;;;4.19;88.39
17855;BME280;9053;53.358;6.382;2023-03-15T04:39:54;101265.38;;;4.20;88.50
17855;BME280;9053;53.358;6.382;2023-03-15T04:42:24;101266.38;;;4.22;88.49
17855;BME280;9053;53.358;6.382;2023-03-15T04:44:59;101259.38;;;4.21;88.27
17855;BME280;9053;53.358;6.382;2023-03-15T04:47:30;101266.38;;;4.22;88.35
17855;BME280;9053;53.358;6.382;2023-03-15T04:50:00;101262.06;;;4.23;88.29
17855;BME280;9053;53.358;6.382;2023-03-15T04:52:29;101266.50;;;4.24;88.48
17855;BME280;9053;53.358;6.382;2023-03-15T04:54:59;101263.19;;;4.26;88.44
17855;BME280;9053;53.358;6.382;2023-03-15T04:57:29;101268.59;;;4.29;88.52
17855;BME280;9053;53.358;6.382;2023-03-15T05:00:07;101273.97;;;4.32;88.65
17855;BME280;9053;53.358;6.382;2023-03-15T05:02:38;101272.38;;;4.34;88.60
17855;BME280;9053;53.358;6.382;2023-03-15T05:05:10;101269.59;;;4.31;88.70
17855;BME280;9053;53.358;6.382;2023-03-15T05:07:40;101269.28;;;4.27;88.70
17855;BME280;9053;53.358;6.382;2023-03-15T05:10:10;101271.78;;;4.25;88.76
17855;BME280;9053;53.358;6.382;2023-03-15T05:12:41;101273.38;;;4.23;88.72
17855;BME280;9053;53.358;6.382;2023-03-15T05:15:14;101282.56;;;4.18;88.86
17855;BME280;9053;53.358;6.382;2023-03-15T05:17:44;101289.09;;;4.11;88.79
17855;BME280;9053;53.358;6.382;2023-03-15T05:20:15;101287.88;;;4.06;88.71
17855;BME280;9053;53.358;6.382;2023-03-15T05:22:45;101291.88;;;4.01;88.73
17855;BME280;9053;53.358;6.382;2023-03-15T05:25:15;101305.41;;;3.96;88.86
17855;BME280;9053;53.358;6.382;2023-03-15T05:27:48;101305.28;;;3.94;88.65
17855;BME280;9053;53.358;6.382;2023-03-15T05:30:21;101311.97;;;3.90;88.77
17855;BME280;9053;53.358;6.382;2023-03-15T05:32:51;101312.56;;;3.86;88.83
17855;BME280;9053;53.358;6.382;2023-03-15T05:35:21;101325.13;;;3.80;88.79
17855;BME280;9053;53.358;6.382;2023-03-15T05:37:54;101329.81;;;3.73;88.72
17855;BME280;9053;53.358;6.382;2023-03-15T05:40:24;101330.22;;;3.65;88.87
17855;BME280;9053;53.358;6.382;2023-03-15T05:42:55;101331.69;;;3.62;88.98
17855;BME280;9053;53.358;6.382;2023-03-15T05:45:28;101344.38;;;3.57;88.99
17855;BME280;9053;53.358;6.382;2023-03-15T05:48:00;101352.84;;;3.55;89.06
17855;BME280;9053;53.358;6.382;2023-03-15T05:50:30;101357.72;;;3.50;88.91
17855;BME280;9053;53.358;6.382;2023-03-15T05:53:00;101354.03;;;3.46;89.08
17855;BME280;9053;53.358;6.382;2023-03-15T05:55:30;101366.00;;;3.44;89.08
17855;BME280;9053;53.358;6.382;2023-03-15T05:58:01;101370.09;;;3.41;89.07
17855;BME280;9053;53.358;6.382;2023-03-15T06:00:34;101373.47;;;3.40;89.38
17855;BME280;9053;53.358;6.382;2023-03-15T06:03:04;101378.38;;;3.35;89.40
17855;BME280;9053;53.358;6.382;2023-03-15T06:05:35;101375.88;;;3.37;89.25
17855;BME280;9053;53.358;6.382;2023-03-15T06:08:05;101375.78;;;3.35;89.57
17855;BME280;9053;53.358;6.382;2023-03-15T06:10:35;101377.56;;;3.36;89.64
17855;BME280;9053;53.358;6.382;2023-03-15T06:13:05;101374.06;;;3.36;89.63
17855;BME280;9053;53.358;6.382;2023-03-15T06:15:37;101380.28;;;3.38;89.83
17855;BME280;9053;53.358;6.382;2023-03-15T06:18:07;101385.59;;;3.39;89.85
17855;BME280;9053;53.358;6.382;2023-03-15T06:20:37;101384.91;;;3.42;90.06
17855;BME280;9053;53.358;6.382;2023-03-15T06:23:07;101393.72;;;3.44;90.08
17855;BME280;9053;53.358;6.382;2023-03-15T06:25:36;101399.81;;;3.44;90.43
17855;BME280;9053;53.358;6.382;2023-03-15T06:28:06;101404.13;;;3.44;90.50
17855;BME280;9053;53.358;6.382;2023-03-15T06:30:39;101404.13;;;3.44;90.44
17855;BME280;9053;53.358;6.382;2023-03-15T06:33:09;101405.91;;;3.45;90.46
17855;BME280;9053;53.358;6.382;2023-03-15T06:35:43;101407.63;;;3.44;90.79
17855;BME280;9053;53.358;6.382;2023-03-15T06:38:12;101412.94;;;3.46;90.80
17855;BME280;9053;53.358;6.382;2023-03-15T06:40:43;101403.44;;;3.46;90.72
17855;BME280;9053;53.358;6.382;2023-03-15T06:43:12;101416.09;;;3.54;90.93
17855;BME280;9053;53.358;6.382;2023-03-15T06:45:47;101411.31;;;3.60;91.16
17855;BME280;9053;53.358;6.382;2023-03-15T06:48:19;101415.13;;;3.65;91.34
17855;BME280;9053;53.358;6.382;2023-03-15T06:50:49;101420.66;;;3.69;91.36
17855;BME280;9053;53.358;6.382;2023-03-15T06:53:19;101414.09;;;3.75;91.49
17855;BME280;9053;53.358;6.382;2023-03-15T06:55:49;101411.94;;;3.81;91.61
17855;BME280;9053;53.358;6.382;2023-03-15T06:58:19;101414.03;;;3.86;91.71
17855;BME280;9053;53.358;6.382;2023-03-15T07:00:51;101431.78;;;3.92;91.88
17855;BME280;9053;53.358;6.382;2023-03-15T07:03:23;101438.13;;;3.96;91.64
17855;BME280;9053;53.358;6.382;2023-03-15T07:05:52;101436.50;;;3.98;92.06
17855;BME280;9053;53.358;6.382;2023-03-15T07:08:23;101444.63;;;4.02;92.12
17855;BME280;9053;53.358;6.382;2023-03-15T07:10:53;101448.38;;;4.06;91.95
17855;BME280;9053;53.358;6.382;2023-03-15T07:13:23;101461.59;;;4.09;92.06
17855;BME280;9053;53.358;6.382;2023-03-15T07:15:55;101454.13;;;4.14;92.28
17855;BME280;9053;53.358;6.382;2023-03-15T07:18:26;101457.25;;;4.21;92.26
17855;BME280;9053;53.358;6.382;2023-03-15T07:21:37;101463.75;;;4.28;92.57
17855;BME280;9053;53.358;6.382;2023-03-15T07:24:09;101468.50;;;4.33;92.47
17855;BME280;9053;53.358;6.382;2023-03-15T07:26:39;101461.31;;;4.43;92.76
17855;BME280;9053;53.358;6.382;2023-03-15T07:29:09;101456.63;;;4.50;92.81
17855;BME280;9053;53.358;6.382;2023-03-15T07:31:43;101466.06;;;4.62;92.95
17855;BME280;9053;53.358;6.382;2023-03-15T07:34:13;101472.81;;;4.71;93.04
17855;BME280;9053;53.358;6.382;2023-03-15T07:36:43;101474.41;;;4.83;93.20
17855;BME280;9053;53.358;6.382;2023-03-15T07:39:13;101467.44;;;4.95;93.36
17855;BME280;9053;53.358;6.382;2023-03-15T07:41:43;101483.97;;;5.09;93.48
17855;BME280;9053;53.358;6.382;2023-03-15T07:44:13;101487.50;;;5.23;93.66
17855;BME280;9053;53.358;6.382;2023-03-15T07:46:46;101503.56;;;5.42;93.96
17855;BME280;9053;53.358;6.382;2023-03-15T07:49:16;101507.22;;;5.59;94.10
17855;BME280;9053;53.358;6.382;2023-03-15T07:51:46;101514.34;;;5.75;94.23
17855;BME280;9053;53.358;6.382;2023-03-15T07:54:19;101520.53;;;5.90;94.20
17855;BME280;9053;53.358;6.382;2023-03-15T07:56:49;101512.69;;;6.03;94.18
17855;BME280;9053;53.358;6.382;2023-03-15T07:59:19;101515.38;;;6.18;94.20
17855;BME280;9053;53.358;6.382;2023-03-15T08:01:52;101523.25;;;6.33;94.27
17855;BME280;9053;53.358;6.382;2023-03-15T08:04:21;101515.34;;;6.46;94.30
17855;BME280;9053;53.358;6.382;2023-03-15T08:06:51;101506.56;;;6.59;94.15
17855;BME280;9053;53.358;6.382;2023-03-15T08:09:21;101517.03;;;6.74;94.18
17855;BME280;9053;53.358;6.382;2023-03-15T08:11:51;101514.53;;;6.90;94.15
17855;BME280;9053;53.358;6.382;2023-03-15T08:14:20;101516.22;;;7.05;94.00
17855;BME280;9053;53.358;6.382;2023-03-15T08:16:53;101524.97;;;7.20;93.95
17855;BME280;9053;53.358;6.382;2023-03-15T08:19:23;101522.16;;;7.32;93.65
17855;BME280;9053;53.358;6.382;2023-03-15T08:21:53;101534.34;;;7.46;93.66
17855;BME280;9053;53.358;6.382;2023-03-15T08:24:26;101540.28;;;7.58;93.49
17855;BME280;9053;53.358;6.382;2023-03-15T08:29:48;101539.13;;;7.85;93.01
17855;BME280;9053;53.358;6.382;2023-03-15T08:32:21;101546.84;;;7.98;92.86
17855;BME280;9053;53.358;6.382;2023-03-15T08:34:51;101550.78;;;8.06;92.55
17855;BME280;9053;53.358;6.382;2023-03-15T08:37:21;101552.91;;;8.13;92.20
17855;BME280;9053;53.358;6.382;2023-03-15T08:39:51;101542.06;;;8.22;91.83
17855;BME280;9053;53.358;6.382;2023-03-15T08:42:26;101543.47;;;8.32;91.30
17855;BME280;9053;53.358;6.382;2023-03-15T08:44:56;101545.41;;;8.36;90.86
17855;BME280;9053;53.358;6.382;2023-03-15T08:47:30;101558.59;;;8.37;90.30
17855;BME280;9053;53.358;6.382;2023-03-15T08:50:01;101561.50;;;8.42;89.74
17855;BME280;9053;53.358;6.382;2023-03-15T08:52:31;101561.72;;;8.47;89.20
17855;BME280;9053;53.358;6.382;2023-03-15T08:55:02;101567.47;;;8.56;88.76
17855;BME280;9053;53.358;6.382;2023-03-15T08:57:32;101564.47;;;8.64;88.26
17855;BME280;9053;53.358;6.382;2023-03-15T09:00:03;101571.75;;;8.70;87.75
17855;BME280;9053;53.358;6.382;2023-03-15T09:02:38;101569.53;;;8.78;87.26
17855;BME280;9053;53.358;6.382;2023-03-15T09:05:09;101583.44;;;8.77;86.63
17855;BME280;9053;53.358;6.382;2023-03-15T09:07:39;101581.50;;;8.73;86.14
17855;BME280;9053;53.358;6.382;2023-03-15T09:10:10;101586.91;;;8.76;85.70
17855;BME280;9053;53.358;6.382;2023-03-15T09:12:41;101589.19;;;8.86;85.22
17855;BME280;9053;53.358;6.382;2023-03-15T09:15:12;101573.59;;;8.89;84.92
17855;BME280;9053;53.358;6.382;2023-03-15T09:17:45;101577.16;;;8.90;84.56
17855;BME280;9053;53.358;6.382;2023-03-15T09:20:18;101586.06;;;8.93;84.16
17855;BME280;9053;53.358;6.382;2023-03-15T09:22:50;101566.22;;;8.98;83.85
17855;BME280;9053;53.358;6.382;2023-03-15T09:25:21;101566.38;;;9.01;83.47
17855;BME280;9053;53.358;6.382;2023-03-15T09:27:52;101562.09;;;9.03;83.17
17855;BME280;9053;53.358;6.382;2023-03-15T09:30:22;101562.94;;;9.02;82.65
17855;BME280;9053;53.358;6.382;2023-03-15T09:32:55;101580.47;;;9.03;82.36
17855;BME280;9053;53.358;6.382;2023-03-15T09:35:24;101570.88;;;9.04;82.04
17855;BME280;9053;53.358;6.382;2023-03-15T09:37:54;101585.06;;;9.07;81.66
17855;BME280;9053;53.358;6.382;2023-03-15T09:40:26;101587.00;;;9.12;81.33
17855;BME280;9053;53.358;6.382;2023-03-15T09:43:03;101581.19;;;9.17;81.03
17855;BME280;9053;53.358;6.382;2023-03-15T09:45:55;101587.50;;;9.21;80.79
17855;BME280;9053;53.358;6.382;2023-03-15T09:48:37;101600.53;;;9.19;80.49
17855;BME280;9053;53.358;6.382;2023-03-15T09:51:12;101593.88;;;9.26;80.27
17855;BME280;9053;53.358;6.382;2023-03-15T09:53:49;101594.63;;;9.23;80.03
17855;BME280;9053;53.358;6.382;2023-03-15T09:56:24;101601.50;;;9.21;79.73
17855;BME280;9053;53.358;6.382;2023-03-15T09:58:58;101600.03;;;9.26;79.46
17855;BME280;9053;53.358;6.382;2023-03-15T10:01:30;101609.53;;;9.24;79.18
17855;BME280;9053;53.358;6.382;2023-03-15T10:04:08;101602.66;;;9.26;79.02
17855;BME280;9053;53.358;6.382;2023-03-15T10:06:41;101606.16;;;9.27;78.86
17855;BME280;9053;53.358;6.382;2023-03-15T10:09:22;101607.09;;;9.27;78.62
17855;BME280;9053;53.358;6.382;2023-03-15T10:12:00;101619.38;;;9.28;78.39
17855;BME280;9053;53.358;6.382;2023-03-15T10:14:50;101620.28;;;9.29;78.22
17855;BME280;9053;53.358;6.382;2023-03-15T10:17:34;101629.78;;;9.27;78.02
17855;BME280;9053;53.358;6.382;2023-03-15T10:20:11;101635.28;;;9.31;77.82
17855;BME280;9053;53.358;6.382;2023-03-15T10:22:49;101626.06;;;9.40;77.82
17855;BME280;9053;53.358;6.382;2023-03-15T10:25:23;101635.91;;;9.44;77.54
17855;BME280;9053;53.358;6.382;2023-03-15T10:27:57;101629.03;;;9.46;77.48
17855;BME280;9053;53.358;6.382;2023-03-15T10:30:29;101652.56;;;9.44;77.31
17855;BME280;9053;53.358;6.382;2023-03-15T10:33:01;101643.66;;;9.41;77.17
17855;BME280;9053;53.358;6.382;2023-03-15T10:35:34;101651.38;;;9.38;77.04
17855;BME280;9053;53.358;6.382;2023-03-15T10:38:13;101643.41;;;9.36;76.84
17855;BME280;9053;53.358;6.382;2023-03-15T10:40:46;101645.19;;;9.37;76.76
17855;BME280;9053;53.358;6.382;2023-03-15T10:43:21;101645.44;;;9.42;76.57
17855;BME280;9053;53.358;6.382;2023-03-15T10:45:59;101645.53;;;9.43;76.31
17855;BME280;9053;53.358;6.382;2023-03-15T10:48:32;101649.28;;;9.48;76.12
17855;BME280;9053;53.358;6.382;2023-03-15T10:51:14;101654.53;;;9.48;75.89
17855;BME280;9053;53.358;6.382;2023-03-15T10:53:52;101653.69;;;9.49;75.63
17855;BME280;9053;53.358;6.382;2023-03-15T10:56:24;101658.81;;;9.46;75.40
17855;BME280;9053;53.358;6.382;2023-03-15T10:58:56;101667.44;;;9.44;75.22
17855;BME280;9053;53.358;6.382;2023-03-15T11:01:38;101670.88;;;9.43;74.87
17855;BME280;9053;53.358;6.382;2023-03-15T11:04:15;101668.31;;;9.44;74.57
17855;BME280;9053;53.358;6.382;2023-03-15T11:06:59;101682.59;;;9.49;74.30
17855;BME280;9053;53.358;6.382;2023-03-15T11:09:38;101674.72;;;9.49;74.01
17855;BME280;9053;53.358;6.382;2023-03-15T11:12:11;101673.91;;;9.50;73.75
17855;BME280;9053;53.358;6.382;2023-03-15T11:14:48;101683.41;;;9.48;73.51
17855;BME280;9053;53.358;6.382;2023-03-15T11:17:20;101692.94;;;9.46;73.43
17855;BME280;9053;53.358;6.382;2023-03-15T11:19:54;101692.78;;;9.43;73.19
17855;BME280;9053;53.358;6.382;2023-03-15T11:22:29;101697.19;;;9.44;72.96
17855;BME280;9053;53.358;6.382;2023-03-15T11:25:01;101698.19;;;9.46;72.83
17855;BME280;9053;53.358;6.382;2023-03-15T11:27:31;101693.94;;;9.48;72.72
17855;BME280;9053;53.358;6.382;2023-03-15T11:30:01;101695.56;;;9.46;72.48
17855;BME280;9053;53.358;6.382;2023-03-15T11:32:31;101700.16;;;9.50;72.18
17855;BME280;9053;53.358;6.382;2023-03-15T11:35:04;101691.59;;;9.54;72.15
17855;BME280;9053;53.358;6.382;2023-03-15T11:37:41;101707.69;;;9.61;71.99
17855;BME280;9053;53.358;6.382;2023-03-15T11:40:17;101699.97;;;9.64;71.90
17855;BME280;9053;53.358;6.382;2023-03-15T11:42:54;101697.47;;;9.67;71.91
17855;BME280;9053;53.358;6.382;2023-03-15T11:45:30;101705.50;;;9.70;71.80
17855;BME280;9053;53.358;6.382;2023-03-15T11:48:07;101692.38;;;9.70;71.88
17855;BME280;9053;53.358;6.382;2023-03-15T11:50:40;101696.00;;;9.72;71.55
17855;BME280;9053;53.358;6.382;2023-03-15T11:53:15;101690.88;;;9.75;71.47
17855;BME280;9053;53.358;6.382;2023-03-15T11:55:47;101704.03;;;9.75;71.30
17855;BME280;9053;53.358;6.382;2023-03-15T11:58:28;101704.13;;;9.77;71.19
17855;BME280;9053;53.358;6.382;2023-03-15T12:01:00;101700.59;;;9.76;71.15
17855;BME280;9053;53.358;6.382;2023-03-15T12:03:42;101699.75;;;9.77;71.03
17855;BME280;9053;53.358;6.382;2023-03-15T12:06:34;101705.16;;;9.80;70.92
17855;BME280;9053;53.358;6.382;2023-03-15T12:12:33;101706.97;;;9.81;70.93
17855;BME280;9053;53.358;6.382;2023-03-15T12:15:13;101706.09;;;9.81;70.71
17855;BME280;9053;53.358;6.382;2023-03-15T12:17:45;101703.50;;;9.82;70.63
17855;BME280;9053;53.358;6.382;2023-03-15T12:20:21;101705.47;;;9.86;70.57
17855;BME280;9053;53.358;6.382;2023-03-15T12:23:12;101702.84;;;9.86;70.40
17855;BME280;9053;53.358;6.382;2023-03-15T12:25:51;101699.38;;;9.87;70.29
17855;BME280;9053;53.358;6.382;2023-03-15T12:28:27;101706.53;;;9.90;70.16
17855;BME280;9053;53.358;6.382;2023-03-15T12:31:00;101698.81;;;9.93;70.14
17855;BME280;9053;53.358;6.382;2023-03-15T12:33:33;101707.75;;;9.96;70.09
17855;BME280;9053;53.358;6.382;2023-03-15T12:36:17;101706.09;;;9.99;70.09
17855;BME280;9053;53.358;6.382;2023-03-15T12:39:00;101704.47;;;10.01;70.01
17855;BME280;9053;53.358;6.382;2023-03-15T12:41:36;101708.66;;;9.97;69.96
17855;BME280;9053;53.358;6.382;2023-03-15T12:44:35;101699.38;;;9.87;69.77
17855;BME280;9053;53.358;6.382;2023-03-15T12:47:07;101701.72;;;9.81;69.58
17855;BME280;9053;53.358;6.382;2023-03-15T12:49:39;101703.47;;;9.81;69.47
17855;BME280;9053;53.358;6.382;2023-03-15T12:52:27;101705.34;;;9.83;69.22
17855;BME280;9053;53.358;6.382;2023-03-15T12:55:10;101708.84;;;9.84;69.14
17855;BME280;9053;53.358;6.382;2023-03-15T13:06:10;101707.00;;;9.99;69.08
17855;BME280;9053;53.358;6.382;2023-03-15T13:08:46;101714.78;;;9.97;69.04
17855;BME280;9053;53.358;6.382;2023-03-15T13:11:22;101726.97;;;9.95;68.91
17855;BME280;9053;53.358;6.382;2023-03-15T13:14:12;101722.00;;;9.84;68.74
17855;BME280;9053;53.358;6.382;2023-03-15T13:17:04;101727.66;;;9.75;68.60
17855;BME280;9053;53.358;6.382;2023-03-15T13:19:41;101722.41;;;9.75;68.64
17855;BME280;9053;53.358;6.382;2023-03-15T13:22:35;101722.66;;;9.80;68.78
17855;BME280;9053;53.358;6.382;2023-03-15T13:49:38;101729.66;;;9.97;68.36
17855;BME280;9053;53.358;6.382;2023-03-15T13:52:11;101728.69;;;9.95;68.22
17855;BME280;9053;53.358;6.382;2023-03-15T13:54:44;101726.16;;;9.96;68.25
17855;BME280;9053;53.358;6.382;2023-03-15T13:57:18;101719.28;;;10.00;68.27
17855;BME280;9053;53.358;6.382;2023-03-15T13:59:50;101720.88;;;9.96;68.32
17855;BME280;9053;53.358;6.382;2023-03-15T14:02:23;101715.53;;;9.95;68.33
17855;BME280;9053;53.358;6.382;2023-03-15T14:05:05;101718.91;;;9.92;68.40
17855;BME280;9053;53.358;6.382;2023-03-15T14:07:36;101717.03;;;9.90;68.44
17855;BME280;9053;53.358;6.382;2023-03-15T14:10:26;101720.66;;;9.92;68.49
17855;BME280;9053;53.358;6.382;2023-03-15T14:13:15;101725.09;;;9.93;68.60
17855;BME280;9053;53.358;6.382;2023-03-15T14:15:55;101718.72;;;9.88;68.68
17855;BME280;9053;53.358;6.382;2023-03-15T14:18:29;101717.03;;;9.90;68.90
17855;BME280;9053;53.358;6.382;2023-03-15T14:21:05;101724.03;;;9.89;68.95